Time;durP1;ratioP1;P1;durP2;ratioP2;P2;SDS_P1;SDS_P2;PMS_P1;PMS_P2;Temp;Humidity;BMP_temperature;BMP_pressure;BME280_temperature;BME280_humidity;BME280_pressure;Samples;Min_cycle;Max_cycle;Signal;HPM_P1;HPM_P2
2023/05/08 00:01:44;;;;;;;8.90;8.00;;;;;;;14.06;100.00;101923.66;5070977;28;20123;-77
2023/05/08 00:04:09;;;;;;;10.15;8.85;;;;;;;14.05;100.00;101927.19;5070549;28;20048;-77
2023/05/08 00:06:35;;;;;;;10.25;8.88;;;;;;;14.06;100.00;101926.28;5070422;28;20027;-77
2023/05/08 00:09:00;;;;;;;11.13;8.50;;;;;;;14.03;100.00;101923.72;5071050;28;20028;-77
2023/05/08 00:11:25;;;;;;;9.75;8.75;;;;;;;14.03;100.00;101920.28;5070182;28;20039;-77
2023/05/08 00:13:50;;;;;;;9.38;8.48;;;;;;;14.02;100.00;101924.63;5071468;28;20016;-77
2023/05/08 00:16:16;;;;;;;9.07;8.15;;;;;;;14.03;100.00;101925.50;5070639;28;20433;-77
2023/05/08 00:18:42;;;;;;;9.38;8.32;;;;;;;14.03;100.00;101917.66;5070342;28;20031;-77
2023/05/08 00:21:07;;;;;;;11.68;9.23;;;;;;;14.01;100.00;101911.59;5071866;28;20475;-77
2023/05/08 00:23:33;;;;;;;10.73;9.20;;;;;;;14.00;100.00;101915.09;5069210;28;20089;-77
2023/05/08 00:25:58;;;;;;;11.30;9.32;;;;;;;13.98;100.00;101909.91;5070488;28;20028;-77
2023/05/08 00:28:23;;;;;;;11.00;9.55;;;;;;;13.95;100.00;101918.66;5069278;28;20521;-77
2023/05/08 00:30:49;;;;;;;12.90;10.43;;;;;;;13.93;100.00;101917.00;5068988;28;20352;-77
2023/05/08 00:33:14;;;;;;;13.05;10.75;;;;;;;13.90;100.00;101917.06;5068659;28;20026;-77
2023/05/08 00:35:42;;;;;;;12.32;10.65;;;;;;;13.88;100.00;101921.47;5070227;28;20498;-77
2023/05/08 00:38:08;;;;;;;12.98;11.57;;;;;;;13.87;100.00;101922.34;5069250;28;20430;-77
2023/05/08 00:40:33;;;;;;;11.75;10.50;;;;;;;13.86;100.00;101929.34;5071185;28;20025;-77
2023/05/08 00:42:59;;;;;;;13.27;11.02;;;;;;;13.86;100.00;101918.91;5070369;28;20028;-77
2023/05/08 00:45:36;;;;;;;14.27;10.35;;;;;;;13.87;100.00;101920.63;5070301;28;20027;-77
2023/05/08 00:48:02;;;;;;;11.60;10.40;;;;;;;13.90;100.00;101922.28;5068195;28;20102;-77
2023/05/08 00:50:28;;;;;;;12.30;10.82;;;;;;;13.89;100.00;101916.22;5069971;28;20029;-77
2023/05/08 00:52:55;;;;;;;12.52;10.77;;;;;;;13.88;100.00;101916.22;5070875;28;20120;-77
2023/05/08 00:55:22;;;;;;;12.05;10.30;;;;;;;13.85;100.00;101913.69;5072267;28;20376;-77
2023/05/08 00:57:47;;;;;;;11.75;10.55;;;;;;;13.84;100.00;101917.19;5068876;28;20025;-77
2023/05/08 01:00:16;;;;;;;11.18;9.98;;;;;;;13.82;100.00;101914.63;5070239;28;20059;-77
2023/05/08 01:02:42;;;;;;;11.57;10.38;;;;;;;13.81;100.00;101916.38;5069701;28;20025;-77
2023/05/08 01:05:07;;;;;;;11.80;9.88;;;;;;;13.78;100.00;101916.44;5070322;28;20384;-77
2023/05/08 01:07:33;;;;;;;12.20;9.73;;;;;;;13.77;100.00;101914.72;5070055;28;20471;-77
2023/05/08 01:09:58;;;;;;;11.15;9.82;;;;;;;13.77;100.00;101911.22;5071607;28;20021;-77
2023/05/08 01:12:43;;;;;;;11.55;10.25;;;;;;;13.76;100.00;101913.00;5071549;28;20121;-77
2023/05/08 01:15:27;;;;;;;10.32;9.27;;;;;;;13.77;100.00;101917.34;5071628;28;20028;-78
2023/05/08 01:18:16;;;;;;;11.57;9.73;;;;;;;13.75;100.00;101911.28;5069707;28;20039;-77
2023/05/08 01:20:49;;;;;;;11.05;9.95;;;;;;;13.75;100.00;101908.66;5069839;28;20044;-77
2023/05/08 01:23:43;;;;;;;10.82;9.48;;;;;;;13.76;100.00;101905.16;5074395;28;20028;-78
2023/05/08 01:26:34;;;;;;;9.98;8.98;;;;;;;13.75;100.00;101908.66;5073230;28;20125;-77
2023/05/08 01:29:32;;;;;;;11.02;9.68;;;;;;;13.77;100.00;101906.88;5075663;28;21375;-77
2023/05/08 01:32:22;;;;;;;11.35;10.00;;;;;;;13.77;100.00;101906.88;5059689;28;20091;-77
2023/05/08 01:35:16;;;;;;;15.02;10.05;;;;;;;13.79;100.00;101910.31;5069513;28;20047;-77
2023/05/08 01:37:52;;;;;;;12.02;10.30;;;;;;;13.78;100.00;101915.56;5069418;28;20104;-77
2023/05/08 01:40:31;;;;;;;11.50;10.30;;;;;;;13.74;100.00;101912.19;5073851;28;20032;-77
2023/05/08 01:43:11;;;;;;;10.48;9.30;;;;;;;13.73;100.00;101910.44;5072449;28;20079;-77
2023/05/08 01:45:45;;;;;;;10.70;9.25;;;;;;;13.71;100.00;101917.47;5071233;28;20035;-77
2023/05/08 01:48:21;;;;;;;10.88;9.77;;;;;;;13.70;100.00;101907.06;5072849;28;20041;-77
2023/05/08 01:50:51;;;;;;;10.32;8.93;;;;;;;13.67;100.00;101913.19;5071474;28;20025;-77
2023/05/08 01:53:35;;;;;;;8.60;7.70;;;;;;;13.65;100.00;101907.16;5070718;28;20029;-77
2023/05/08 01:56:08;;;;;;;7.68;6.93;;;;;;;13.63;100.00;101915.00;5072455;28;20021;-77
2023/05/08 01:58:35;;;;;;;8.07;7.28;;;;;;;13.62;100.00;101918.53;5071791;28;20037;-78
2023/05/08 02:01:01;;;;;;;7.72;6.63;;;;;;;13.61;100.00;101924.66;5069302;28;20025;-78
2023/05/08 02:03:30;;;;;;;7.88;6.90;;;;;;;13.61;100.00;101921.19;5071227;28;20098;-78
2023/05/08 02:05:57;;;;;;;8.38;7.53;;;;;;;13.64;100.00;101932.44;5073029;28;20095;-77
2023/05/08 02:08:25;;;;;;;9.95;8.95;;;;;;;13.65;100.00;101933.31;5073304;28;20024;-77
2023/05/08 02:10:51;;;;;;;11.57;9.52;;;;;;;13.66;100.00;101927.19;5071247;28;20036;-77
2023/05/08 02:13:18;;;;;;;10.75;9.65;;;;;;;13.65;100.00;101930.69;5073290;28;20021;-77
2023/05/08 02:15:47;;;;;;;10.38;8.93;;;;;;;13.66;100.00;101935.88;5071112;28;20020;-77
2023/05/08 02:18:14;;;;;;;9.40;8.45;;;;;;;13.66;100.00;101932.41;5071918;28;20024;-77
2023/05/08 02:20:41;;;;;;;10.35;8.65;;;;;;;13.67;100.00;101936.72;5070489;28;20023;-77
2023/05/08 02:23:06;;;;;;;11.10;9.13;;;;;;;13.68;100.00;101934.97;5073250;28;20055;-77
2023/05/08 02:25:33;;;;;;;10.98;9.85;;;;;;;13.69;100.00;101936.72;5069711;28;20475;-77
2023/05/08 02:27:58;;;;;;;10.73;9.63;;;;;;;13.66;100.00;101945.50;5069917;28;20137;-77
2023/05/08 02:30:25;;;;;;;11.38;9.63;;;;;;;13.67;100.00;101939.34;5071126;28;20536;-77
2023/05/08 02:32:52;;;;;;;12.43;10.18;;;;;;;13.69;100.00;101934.94;5071826;28;20044;-77
2023/05/08 02:35:19;;;;;;;10.48;9.38;;;;;;;13.68;100.00;101935.84;5070521;28;20036;-77
2023/05/08 02:37:56;;;;;;;11.40;9.57;;;;;;;13.68;100.00;101933.22;5067778;28;20028;-77
2023/05/08 02:40:25;;;;;;;11.10;9.90;;;;;;;13.66;100.00;101937.66;5069478;28;20356;-77
2023/05/08 02:42:50;;;;;;;12.60;10.25;;;;;;;13.67;100.00;101931.50;5073368;28;20020;-78
2023/05/08 02:45:16;;;;;;;11.85;10.23;;;;;;;13.68;100.00;101932.38;5071371;28;20031;-77
2023/05/08 02:47:57;;;;;;;11.40;9.93;;;;;;;13.68;100.00;101927.97;5072349;28;20071;-77
2023/05/08 02:50:34;;;;;;;11.70;9.73;;;;;;;13.69;100.00;101928.88;5071650;28;20480;-77
2023/05/08 02:53:03;;;;;;;13.45;11.05;;;;;;;13.67;100.00;101931.50;5072195;28;20612;-77
2023/05/08 02:55:43;;;;;;;14.48;11.82;;;;;;;13.66;100.00;101924.56;5072216;28;20050;-77
2023/05/08 02:58:33;;;;;;;11.80;10.60;;;;;;;13.66;100.00;101921.97;5070185;28;20395;-77
2023/05/08 03:01:11;;;;;;;11.30;9.97;;;;;;;13.64;100.00;101924.59;5070639;28;20096;-77
2023/05/08 03:03:43;;;;;;;12.20;9.80;;;;;;;13.65;100.00;101928.06;5072601;28;20051;-77
2023/05/08 03:06:12;;;;;;;11.95;10.32;;;;;;;13.64;100.00;101931.59;5073691;28;20025;-77
2023/05/08 03:08:39;;;;;;;12.90;11.30;;;;;;;13.65;100.00;101928.91;5072938;28;20403;-77
2023/05/08 03:11:09;;;;;;;13.52;11.73;;;;;;;13.65;100.00;101928.06;5072460;28;20115;-77
2023/05/08 03:13:39;;;;;;;14.30;11.88;;;;;;;13.66;100.00;101929.81;5073605;28;20025;-77
2023/05/08 03:16:08;;;;;;;14.25;11.75;;;;;;;13.66;100.00;101929.81;5072303;28;20021;-77
2023/05/08 03:18:57;;;;;;;14.60;11.55;;;;;;;13.67;100.00;101931.50;5072094;28;20024;-77
2023/05/08 03:21:27;;;;;;;14.20;12.20;;;;;;;13.62;100.00;101933.38;5071894;28;20111;-77
2023/05/08 03:23:55;;;;;;;13.20;11.68;;;;;;;13.60;100.00;101932.53;5072549;28;20028;-77
2023/05/08 03:26:21;;;;;;;14.32;11.20;;;;;;;13.58;100.00;101924.69;5070886;28;20027;-77
2023/05/08 03:28:51;;;;;;;11.75;10.55;;;;;;;13.57;100.00;101929.97;5072325;28;20023;-77
2023/05/08 03:31:19;;;;;;;11.55;10.32;;;;;;;13.55;100.00;101926.53;5068742;28;20029;-77
2023/05/08 03:33:46;;;;;;;11.48;10.18;;;;;;;13.53;100.00;101928.31;5072542;28;20017;-77
2023/05/08 03:36:12;;;;;;;11.10;9.55;;;;;;;13.53;100.00;101923.09;5068845;28;20116;-77
2023/05/08 03:38:38;;;;;;;12.18;10.15;;;;;;;13.48;100.00;101916.22;5072830;28;20028;-77
2023/05/08 03:41:03;;;;;;;10.50;9.40;;;;;;;13.47;100.00;101918.84;5070033;28;20032;-77
2023/05/08 03:43:30;;;;;;;11.88;9.65;;;;;;;13.44;100.00;101914.56;5072227;28;20040;-77
2023/05/08 03:45:56;;;;;;;10.93;9.82;;;;;;;13.44;100.00;101914.56;5069432;28;20020;-77
2023/05/08 03:48:22;;;;;;;10.30;9.23;;;;;;;13.43;100.00;101918.06;5070999;28;20052;-77
2023/05/08 03:50:49;;;;;;;10.57;9.52;;;;;;;13.41;100.00;101904.16;5069826;28;20360;-77
2023/05/08 03:53:14;;;;;;;11.23;9.95;;;;;;;13.38;100.00;101914.63;5070833;28;20028;-77
2023/05/08 03:55:40;;;;;;;12.20;10.30;;;;;;;13.36;100.00;101905.97;5081928;28;20024;-77
2023/05/08 03:58:24;;;;;;;10.68;9.52;;;;;;;13.35;100.00;101912.06;5070858;28;20023;-77
2023/05/08 04:01:08;;;;;;;11.93;10.40;;;;;;;13.35;100.00;101914.69;5069762;28;20024;-77
2023/05/08 04:03:53;;;;;;;12.25;10.95;;;;;;;13.34;100.00;101923.41;5069374;28;20093;-77
2023/05/08 04:06:30;;;;;;;14.10;11.38;;;;;;;13.33;100.00;101916.47;5070930;28;20020;-77
2023/05/08 04:09:16;;;;;;;12.55;10.60;;;;;;;13.31;100.00;101923.50;5071691;28;20103;-77
2023/05/08 04:11:55;;;;;;;12.38;10.88;;;;;;;13.29;100.00;101923.53;5068672;28;20388;-78
2023/05/08 04:14:25;;;;;;;13.90;11.35;;;;;;;13.30;100.00;101922.63;5070234;28;20093;-77
2023/05/08 04:16:55;;;;;;;14.77;11.35;;;;;;;13.28;100.00;101928.78;5069859;28;20025;-77
2023/05/08 04:19:24;;;;;;;12.75;10.98;;;;;;;13.29;100.00;101930.50;5070607;28;20048;-77
2023/05/08 04:21:54;;;;;;;12.02;10.55;;;;;;;13.26;100.00;101926.19;5068084;28;20051;-77
2023/05/08 04:24:22;;;;;;;12.30;10.35;;;;;;;13.23;100.00;101925.41;5066875;28;20090;-77
2023/05/08 04:26:47;;;;;;;12.30;10.15;;;;;;;13.22;100.00;101924.56;5069381;28;20108;-77
2023/05/08 04:29:13;;;;;;;13.23;10.93;;;;;;;13.21;100.00;101921.06;5069525;28;20111;-77
2023/05/08 04:31:39;;;;;;;15.13;12.13;;;;;;;13.23;100.00;101928.88;5067727;28;20032;-77
2023/05/08 04:34:07;;;;;;;15.50;12.95;;;;;;;13.25;100.00;101919.25;5069626;28;20471;-77
2023/05/08 04:36:33;;;;;;;16.33;13.18;;;;;;;13.26;100.00;101920.13;5069230;28;20028;-77
2023/05/08 04:38:58;;;;;;;16.58;13.55;;;;;;;13.29;100.00;101927.91;5069751;28;20031;-77
2023/05/08 04:41:23;;;;;;;16.63;13.60;;;;;;;13.30;100.00;101932.25;5069356;28;20531;-77
2023/05/08 04:43:49;;;;;;;17.05;14.00;;;;;;;13.31;100.00;101934.81;5069648;28;20035;-78
2023/05/08 04:46:14;;;;;;;15.80;12.57;;;;;;;13.34;100.00;101936.50;5068666;28;20448;-77
2023/05/08 04:48:40;;;;;;;16.17;13.27;;;;;;;13.35;100.00;101936.47;5065515;28;20049;-77
2023/05/08 04:51:05;;;;;;;17.67;13.93;;;;;;;13.38;100.00;101938.16;5067624;28;20030;-77
2023/05/08 04:53:30;;;;;;;18.27;14.00;;;;;;;13.42;100.00;101944.22;5068624;28;20499;-77
2023/05/08 04:55:57;;;;;;;16.25;14.05;;;;;;;13.44;100.00;101945.91;5071305;28;20081;-77
2023/05/08 04:58:22;;;;;;;17.90;14.20;;;;;;;13.46;100.00;101948.50;5068790;28;20490;-77
2023/05/08 05:00:47;;;;;;;17.58;13.73;;;;;;;13.48;100.00;101946.72;5065846;28;20032;-77
2023/05/08 05:03:13;;;;;;;18.52;14.00;;;;;;;13.53;100.00;101954.44;5063527;28;20025;-78
2023/05/08 05:05:38;;;;;;;18.65;14.05;;;;;;;13.54;100.00;101951.81;5067018;28;20530;-78
2023/05/08 05:08:03;;;;;;;18.08;15.02;;;;;;;13.58;100.00;101957.84;5067502;28;20037;-77
2023/05/08 05:10:29;;;;;;;15.63;13.13;;;;;;;13.60;100.00;101956.06;5073677;28;20083;-78
2023/05/08 05:12:54;;;;;;;15.63;13.00;;;;;;;13.62;100.00;101957.75;5066363;28;20039;-78
2023/05/08 05:15:19;;;;;;;15.13;12.88;;;;;;;13.64;100.00;101957.72;5065299;28;20024;-78
2023/05/08 05:17:44;;;;;;;17.48;14.65;;;;;;;13.68;100.00;101959.38;5065618;28;20499;-78
2023/05/08 05:20:10;;;;;;;18.17;15.23;;;;;;;13.70;100.00;101962.81;5071791;28;20031;-78
2023/05/08 05:22:36;;;;;;;19.00;16.00;;;;;;;13.74;100.00;101966.25;5069035;28;20085;-78
2023/05/08 05:25:01;;;;;;;19.15;15.07;;;;;;;13.79;100.00;101962.63;5068168;28;20107;-78
2023/05/08 05:27:26;;;;;;;18.88;14.88;;;;;;;13.83;100.00;101968.66;5065657;28;20028;-78
2023/05/08 05:29:51;;;;;;;23.63;16.83;;;;;;;13.88;100.00;101971.16;5068344;28;20116;-78
2023/05/08 05:32:17;;;;;;;24.70;18.33;;;;;;;13.91;100.00;101971.97;5071723;28;20731;-78
2023/05/08 05:34:43;;;;;;;22.48;18.55;;;;;;;13.96;100.00;101969.25;5063505;28;20031;-77
2023/05/08 05:37:08;;;;;;;24.73;19.00;;;;;;;13.99;100.00;101974.44;5063326;28;20494;-77
2023/05/08 05:39:34;;;;;;;24.55;19.75;;;;;;;14.03;100.00;101970.81;5067166;28;20115;-77
2023/05/08 05:42:00;;;;;;;24.58;20.05;;;;;;;14.06;100.00;101983.84;5069254;28;20459;-77
2023/05/08 05:44:25;;;;;;;25.70;20.20;;;;;;;14.11;100.00;101984.63;5067476;28;20094;-77
2023/05/08 05:46:50;;;;;;;24.95;20.75;;;;;;;14.15;100.00;101992.41;5067103;28;20111;-77
2023/05/08 05:49:15;;;;;;;29.67;23.38;;;;;;;14.18;100.00;101987.94;5066618;28;20044;-77
2023/05/08 05:51:41;;;;;;;29.08;23.00;;;;;;;14.21;100.00;101993.13;5068629;28;20032;-77
2023/05/08 05:54:06;;;;;;;28.17;23.42;;;;;;;14.23;100.00;101988.72;5065959;28;20040;-77
2023/05/08 05:56:31;;;;;;;28.05;22.85;;;;;;;14.27;100.00;102005.22;5070690;28;20029;-78
2023/05/08 05:58:57;;;;;;;28.25;22.85;;;;;;;14.28;100.00;102001.69;5067307;28;20033;-78
2023/05/08 06:01:23;;;;;;;30.02;23.50;;;;;;;14.31;100.00;101999.00;5067926;28;20020;-77
2023/05/08 06:03:49;;;;;;;29.08;23.00;;;;;;;14.33;100.00;102006.81;5065772;28;20030;-77
2023/05/08 06:06:14;;;;;;;26.92;21.90;;;;;;;14.35;100.00;102003.25;5068132;28;20028;-77
2023/05/08 06:08:39;;;;;;;28.70;21.77;;;;;;;14.37;100.00;102006.72;5068457;28;20075;-78
2023/05/08 06:11:05;;;;;;;28.50;22.05;;;;;;;14.40;100.00;102005.78;5071790;28;20048;-78
2023/05/08 06:13:30;;;;;;;28.33;22.15;;;;;;;14.42;100.00;102004.00;5072165;28;20040;-78
2023/05/08 06:15:55;;;;;;;27.17;21.88;;;;;;;14.45;100.00;102003.06;5072804;28;20044;-78
2023/05/08 06:18:21;;;;;;;26.92;21.15;;;;;;;14.47;100.00;101996.03;5067575;28;20056;-77
2023/05/08 06:20:46;;;;;;;28.70;21.25;;;;;;;14.51;100.00;101997.69;5071890;28;20024;-78
2023/05/08 06:23:12;;;;;;;26.90;21.65;;;;;;;14.53;100.00;101994.13;5084287;28;20103;-78
2023/05/08 06:25:37;;;;;;;26.27;21.17;;;;;;;14.56;100.00;101995.81;5073027;28;20031;-77
2023/05/08 06:28:05;;;;;;;27.20;20.33;;;;;;;14.62;100.00;101998.28;5070103;28;20040;-78
2023/05/08 06:30:30;;;;;;;30.05;21.75;;;;;;;14.65;100.00;102003.47;5066135;28;20020;-77
2023/05/08 06:32:56;;;;;;;27.60;21.63;;;;;;;14.67;100.00;101999.06;5065348;28;20037;-77
2023/05/08 06:35:21;;;;;;;26.83;21.23;;;;;;;14.68;100.00;101995.56;5063948;28;20021;-77
2023/05/08 06:37:47;;;;;;;28.02;21.52;;;;;;;14.72;100.00;101997.19;5068301;28;20035;-78
2023/05/08 06:40:13;;;;;;;27.48;21.25;;;;;;;14.79;100.00;101999.66;5066426;28;20038;-78
2023/05/08 06:42:38;;;;;;;29.27;23.27;;;;;;;14.83;100.00;101996.06;5064396;28;20683;-78
2023/05/08 06:45:04;;;;;;;29.85;22.65;;;;;;;14.87;100.00;101992.47;5066941;28;20319;-78
2023/05/08 06:47:29;;;;;;;32.38;23.58;;;;;;;14.91;100.00;102007.22;5062135;28;20115;-77
2023/05/08 06:49:55;;;;;;;30.38;23.15;;;;;;;14.94;100.00;101999.28;5064656;28;20048;-78
2023/05/08 06:52:20;;;;;;;31.58;24.00;;;;;;;14.97;100.00;102001.81;5065212;28;20558;-78
2023/05/08 06:54:46;;;;;;;32.33;24.05;;;;;;;14.99;100.00;102010.50;5066033;28;20021;-78
2023/05/08 06:57:13;;;;;;;31.25;23.52;;;;;;;15.00;100.00;102012.22;5069266;28;20020;-77
2023/05/08 06:59:39;;;;;;;32.47;23.77;;;;;;;15.02;100.00;102010.44;5068134;28;20028;-77
2023/05/08 07:02:04;;;;;;;33.88;23.75;;;;;;;15.03;100.00;102009.50;5067722;28;20039;-77
2023/05/08 07:04:29;;;;;;;33.83;24.98;;;;;;;15.05;100.00;102014.72;5065377;28;20033;-77
2023/05/08 07:06:55;;;;;;;33.30;25.63;;;;;;;15.06;100.00;102015.56;5070835;28;20032;-77
2023/05/08 07:09:20;;;;;;;33.15;25.65;;;;;;;15.07;100.00;102017.28;5070617;28;20027;-77
2023/05/08 07:11:46;;;;;;;33.25;25.70;;;;;;;15.10;100.00;102009.38;5068884;28;20032;-77
2023/05/08 07:14:12;;;;;;;34.35;25.85;;;;;;;15.12;100.00;102010.19;5064727;28;20130;-77
2023/05/08 07:16:37;;;;;;;33.05;24.80;;;;;;;15.13;100.00;102011.91;5069394;28;20025;-77
2023/05/08 07:19:02;;;;;;;31.30;24.77;;;;;;;15.14;100.00;102013.63;5067455;28;20099;-77
2023/05/08 07:21:28;;;;;;;31.08;24.20;;;;;;;15.11;100.00;102019.81;5066862;28;20067;-78
2023/05/08 07:23:53;;;;;;;31.70;23.90;;;;;;;15.11;100.00;102011.97;5067388;28;20035;-77
2023/05/08 07:26:20;;;;;;;31.67;24.20;;;;;;;15.12;100.00;102021.50;5066986;28;20025;-77
2023/05/08 07:28:45;;;;;;;31.48;24.25;;;;;;;15.12;100.00;102028.53;5067161;28;20391;-77
2023/05/08 07:31:10;;;;;;;32.40;24.65;;;;;;;15.12;100.00;102031.16;5068158;28;20090;-77
2023/05/08 07:33:36;;;;;;;35.88;27.45;;;;;;;15.08;100.00;102029.50;5067585;28;20020;-77
2023/05/08 07:36:01;;;;;;;37.88;28.08;;;;;;;15.06;100.00;102031.31;5066982;28;20438;-76
2023/05/08 07:38:26;;;;;;;38.35;27.95;;;;;;;15.05;100.00;102032.19;5067860;28;20103;-77
2023/05/08 07:40:55;;;;;;;41.03;29.23;;;;;;;15.04;100.00;102036.59;5065077;28;20029;-77
2023/05/08 07:43:21;;;;;;;43.42;31.35;;;;;;;15.03;100.00;102038.34;5067429;28;20460;-77
2023/05/08 07:45:47;;;;;;;44.42;33.40;;;;;;;15.04;100.00;102031.34;5067892;28;20025;-77
2023/05/08 07:48:12;;;;;;;45.67;31.80;;;;;;;15.04;100.00;102033.97;5065930;28;20511;-78
2023/05/08 07:50:37;;;;;;;49.80;34.83;;;;;;;15.05;100.00;102024.34;5067891;28;20016;-78
2023/05/08 07:53:03;;;;;;;52.33;35.65;;;;;;;15.07;100.00;102033.03;5068580;28;20139;-78
2023/05/08 07:55:28;;;;;;;53.45;37.67;;;;;;;15.07;100.00;102023.41;5066043;28;20055;-77
2023/05/08 07:57:53;;;;;;;52.97;37.38;;;;;;;15.08;100.00;102029.50;5067695;28;20042;-78
2023/05/08 08:00:19;;;;;;;50.60;35.08;;;;;;;15.10;100.00;102035.56;5065172;28;20048;-78
2023/05/08 08:02:44;;;;;;;49.08;33.92;;;;;;;15.12;100.00;102018.88;5065155;28;20024;-78
2023/05/08 08:05:10;;;;;;;42.05;30.27;;;;;;;15.16;100.00;102027.56;5064068;28;20435;-77
2023/05/08 08:07:35;;;;;;;41.13;29.27;;;;;;;15.19;100.00;102017.00;5066526;28;20036;-77
2023/05/08 08:10:02;;;;;;;36.35;27.30;;;;;;;15.24;100.00;102025.59;5061570;28;20032;-77
2023/05/08 08:12:28;;;;;;;37.63;26.73;;;;;;;15.27;100.00;102020.25;5064845;28;20028;-77
2023/05/08 08:14:53;;;;;;;34.85;25.98;;;;;;;15.34;100.00;102020.97;5063559;28;20343;-77
2023/05/08 08:17:19;;;;;;;38.83;27.95;;;;;;;15.41;100.00;102017.28;5069202;28;20059;-77
2023/05/08 08:19:44;;;;;;;37.72;28.38;;;;;;;15.47;100.00;102016.25;5065481;28;20498;-77
2023/05/08 08:22:09;;;;;;;41.53;29.70;;;;;;;15.53;100.00;102016.09;5063827;28;20027;-77
2023/05/08 08:24:34;;;;;;;40.70;29.25;;;;;;;15.59;100.00;102015.91;5064035;28;20046;-78
2023/05/08 08:27:00;;;;;;;39.30;28.65;;;;;;;15.65;100.00;102025.34;5066622;28;20029;-77
2023/05/08 08:29:25;;;;;;;36.75;26.80;;;;;;;15.69;100.00;102020.91;5061330;28;20033;-78
2023/05/08 08:31:51;;;;;;;36.88;25.92;;;;;;;15.74;99.77;102019.88;5061691;28;20061;-77
2023/05/08 08:34:16;;;;;;;34.38;25.45;;;;;;;15.79;99.14;102019.72;5063938;28;20024;-78
2023/05/08 08:36:41;;;;;;;33.78;25.52;;;;;;;15.86;98.91;102023.94;5064820;28;20071;-78
2023/05/08 08:39:06;;;;;;;30.98;24.55;;;;;;;15.96;99.07;102021.03;5064839;28;20031;-78
2023/05/08 08:41:32;;;;;;;32.75;24.30;;;;;;;16.07;99.07;102011.06;5065881;28;20024;-78
2023/05/08 08:43:58;;;;;;;32.58;24.23;;;;;;;16.19;99.19;102015.06;5071373;28;21584;-78
2023/05/08 08:46:24;;;;;;;29.95;23.20;;;;;;;16.29;96.43;102015.66;5074185;28;20032;-77
2023/05/08 08:48:52;;;;;;;31.58;23.25;;;;;;;16.34;95.74;102016.38;5061753;28;20633;-77
2023/05/08 08:51:34;;;;;;;30.60;22.88;;;;;;;16.41;95.79;102011.78;5051531;28;20763;-76
2023/05/08 08:54:06;;;;;;;29.23;22.27;;;;;;;16.41;94.60;102015.28;5043226;28;20530;-77
2023/05/08 08:56:33;;;;;;;29.60;22.15;;;;;;;16.45;95.20;102014.28;5042547;28;20033;-77
2023/05/08 08:59:00;;;;;;;30.52;22.30;;;;;;;16.47;95.78;102015.09;5038072;28;20036;-78
2023/05/08 09:01:28;;;;;;;29.13;21.85;;;;;;;16.48;94.30;102010.72;5041030;28;20036;-77
2023/05/08 09:03:55;;;;;;;28.40;21.88;;;;;;;16.51;94.88;102016.72;5040099;28;20464;-77
2023/05/08 09:06:21;;;;;;;27.77;21.10;;;;;;;16.56;94.07;102015.72;5041649;28;20033;-77
2023/05/08 09:08:46;;;;;;;26.98;21.20;;;;;;;16.64;94.09;102017.19;5043289;28;20025;-77
2023/05/08 09:11:12;;;;;;;27.90;21.10;;;;;;;16.69;92.51;102015.25;5042923;28;20021;-77
2023/05/08 09:13:37;;;;;;;28.23;21.65;;;;;;;16.68;91.89;102012.69;5040827;28;20136;-78
2023/05/08 09:16:02;;;;;;;28.00;20.95;;;;;;;16.67;92.86;102016.22;5041702;28;20033;-77
2023/05/08 09:18:28;;;;;;;27.45;21.30;;;;;;;16.69;92.56;102014.41;5040666;28;20476;-77
2023/05/08 09:20:53;;;;;;;26.15;20.88;;;;;;;16.71;91.57;102017.84;5041085;28;20025;-77
2023/05/08 09:23:19;;;;;;;26.45;21.05;;;;;;;16.78;92.59;102018.50;5036539;28;20114;-77
2023/05/08 09:25:52;;;;;;;28.50;21.52;;;;;;;16.87;92.69;102025.22;5041322;28;20033;-77
2023/05/08 09:28:20;;;;;;;25.20;18.95;;;;;;;16.92;91.31;102025.91;5041154;28;20029;-77
2023/05/08 09:30:50;;;;;;;25.65;19.45;;;;;;;16.95;91.93;102025.84;5040083;28;20021;-77
2023/05/08 09:33:16;;;;;;;24.90;18.63;;;;;;;16.98;89.02;102028.38;5038636;28;20116;-77
2023/05/08 09:35:41;;;;;;;23.13;18.20;;;;;;;16.97;87.70;102035.41;5039317;28;20017;-77
2023/05/08 09:38:06;;;;;;;22.75;17.90;;;;;;;16.95;87.78;102031.09;5041914;28;20136;-78
2023/05/08 09:40:32;;;;;;;22.40;17.60;;;;;;;16.95;88.03;102026.72;5042745;28;20029;-78
2023/05/08 09:43:12;;;;;;;20.98;17.10;;;;;;;17.00;87.48;102026.53;5040226;28;20076;-78
2023/05/08 09:45:38;;;;;;;22.02;16.73;;;;;;;17.04;86.65;102027.28;5036293;28;21880;-78
2023/05/08 09:48:04;;;;;;;21.50;16.52;;;;;;;17.08;86.18;102029.75;5040346;28;20098;-77
2023/05/08 09:50:31;;;;;;;22.38;17.90;;;;;;;17.13;88.06;102030.47;5040962;28;21505;-78
2023/05/08 09:52:57;;;;;;;25.30;18.98;;;;;;;17.17;87.29;102031.22;5038331;28;20065;-78
2023/05/08 09:55:23;;;;;;;23.92;19.05;;;;;;;17.19;88.45;102029.38;5040307;28;20059;-78
2023/05/08 09:57:56;;;;;;;24.92;19.50;;;;;;;17.22;88.98;102034.56;5036830;28;20036;-78
2023/05/08 10:00:26;;;;;;;25.70;19.20;;;;;;;17.28;87.32;102033.47;5043901;28;20025;-77
2023/05/08 10:02:54;;;;;;;23.90;18.30;;;;;;;17.34;86.87;102041.16;5030634;28;20104;-77
2023/05/08 10:05:31;;;;;;;22.92;17.92;;;;;;;17.39;86.82;102041.88;5026843;28;20528;-77
2023/05/08 10:08:25;;;;;;;23.42;17.95;;;;;;;17.45;87.46;102035.53;5026024;28;20025;-77
2023/05/08 10:10:50;;;;;;;23.50;19.23;;;;;;;17.51;86.69;102039.69;5025856;28;20044;-77
2023/05/08 10:13:16;;;;;;;24.45;18.45;;;;;;;17.54;84.86;102032.53;5028349;28;20033;-77
2023/05/08 10:15:43;;;;;;;24.75;18.80;;;;;;;17.62;85.64;102037.53;5027620;28;20119;-77
2023/05/08 10:18:10;;;;;;;24.77;19.73;;;;;;;17.71;85.59;102031.06;5024620;28;20036;-77
2023/05/08 10:20:44;;;;;;;25.40;19.67;;;;;;;17.81;84.34;102042.13;5025251;28;20044;-78
2023/05/08 10:23:14;;;;;;;24.42;19.80;;;;;;;17.89;85.61;102040.91;5027402;28;20025;-78
2023/05/08 10:25:46;;;;;;;26.52;20.42;;;;;;;17.96;84.62;102040.69;5025382;28;20496;-77
2023/05/08 10:28:36;;;;;;;26.77;20.15;;;;;;;18.06;84.91;102031.56;5027079;28;20100;-77
2023/05/08 10:31:04;;;;;;;26.08;19.45;;;;;;;18.15;83.34;102035.59;5027848;28;20029;-78
2023/05/08 10:33:31;;;;;;;25.15;19.95;;;;;;;18.19;82.35;102037.22;5025053;28;20022;-78
2023/05/08 10:35:57;;;;;;;25.17;19.65;;;;;;;18.18;81.88;102036.38;5027811;28;20178;-78
2023/05/08 10:38:24;;;;;;;22.77;19.38;;;;;;;18.16;82.86;102029.44;5029352;28;20036;-77
2023/05/08 10:40:52;;;;;;;25.38;19.35;;;;;;;18.14;82.75;102033.88;5029358;28;20025;-78
2023/05/08 10:43:18;;;;;;;25.38;19.52;;;;;;;18.17;82.16;102021.47;5032105;28;20040;-78
2023/05/08 10:45:44;;;;;;;23.67;19.38;;;;;;;18.22;82.02;102021.31;5029896;28;20072;-78
2023/05/08 10:48:25;;;;;;;24.02;19.20;;;;;;;18.28;82.56;102018.41;5031227;28;20392;-78
2023/05/08 10:51:14;;;;;;;24.77;18.23;;;;;;;18.32;81.71;102020.00;5030830;28;20053;-77
2023/05/08 10:53:45;;;;;;;25.67;18.95;;;;;;;18.47;82.18;102021.19;5026976;28;20124;-78
2023/05/08 10:56:10;;;;;;;;;;;;;;;18.60;84.57;102013.63;5026943;28;20117;-77
2023/05/08 10:58:37;;;;;;;24.05;16.45;;;;;;;18.66;81.09;102016.00;5029890;28;20681;-78
2023/05/08 11:01:06;;;;;;;25.15;17.55;;;;;;;18.77;80.31;102018.19;5028493;28;20049;-77
2023/05/08 11:03:36;;;;;;;24.95;18.63;;;;;;;18.87;79.57;102010.75;5027272;28;20406;-78
2023/05/08 11:06:02;;;;;;;23.90;18.45;;;;;;;18.94;78.58;102017.53;5030465;28;20508;-78
2023/05/08 11:08:28;;;;;;;24.70;19.15;;;;;;;18.94;77.79;102020.19;5029950;28;20025;-78
2023/05/08 11:11:03;;;;;;;23.52;19.67;;;;;;;18.90;78.98;102008.00;5029119;28;20106;-78
2023/05/08 11:13:50;;;;;;;23.67;19.33;;;;;;;18.91;80.17;102009.72;5029826;28;20586;-76